Terminal Aerodrome Forecast
Issued by NWS

Home | Current Version | Previous Version | Graphics & Text | Print | Product List | Glossary On
Versions: 1 2 3 4 5 6 7 8 9 10 11 12 13
000
FTUS45 KGGW 261740
TAFOLF
TAF
KOLF 261740Z 2618/2718 31009KT P6SM FEW100
     FM270300 02004KT P6SM FEW140
     FM270700 08004KT P6SM FEW080
     FM271700 10007KT P6SM BKN060=

USA.gov is the U.S. government's official web portal to all federal, state and local government web resources and services.